Rye Brook, New York
Current Conditions -  °F | °C
As of 2:56 AM on Sunday 23 Nov 2014 (Local Time) from KHPN Reporting Station
Broken Clouds Broken Clouds  
Wind Chill: 38°   Ceiling: 11000
Heat Index: 42°   Visibility: 10mi
Dew Point: 18°   Wind: 6mph
Humidity: 38%   Direction: 260°W
Pressure: 30.15"   Gusts: NA
Location:  41.0136°N, 73.6759°W
Report Text: KHPN 230756Z 26005KT 10SM BKN110 06/M08 A3015 RMK AO2 SLP214 T00561078
Loading
Personal Weather Stations






























Interactive Weather Map New forecast layout! Learn more

10-Day Weather Forecast

Advertisements
Track Severe Weather on mobile